createdAt,value
2022-09-09T00:01:12.876Z,99497.06
2022-09-09T00:04:05.209Z,99501.91
2022-09-09T00:06:36.508Z,99493.00
2022-09-09T00:09:17.369Z,99489.22
2022-09-09T00:11:48.809Z,99491.59
2022-09-09T00:14:25.657Z,99496.50
2022-09-09T00:16:57.028Z,99509.69
2022-09-09T00:19:31.688Z,99510.59
2022-09-09T00:22:08.889Z,99509.81
2022-09-09T00:24:43.276Z,99508.91
2022-09-09T00:27:39.532Z,99503.59
2022-09-09T00:30:23.472Z,99499.66
2022-09-09T00:32:55.333Z,99498.06
2022-09-09T00:35:26.822Z,99501.47
2022-09-09T00:38:12.133Z,99506.47
2022-09-09T00:40:50.756Z,99500.31
2022-09-09T00:43:26.868Z,99503.16
2022-09-09T00:46:19.504Z,99498.81
2022-09-09T00:49:19.284Z,99497.06
2022-09-09T00:52:11.328Z,99503.84
2022-09-09T00:54:52.231Z,99503.69
2022-09-09T00:57:32.199Z,99508.81
2022-09-09T01:00:23.655Z,99503.41
2022-09-09T01:03:03.421Z,99518.16
2022-09-09T01:05:33.822Z,99516.22
2022-09-09T01:08:03.593Z,99522.56
2022-09-09T01:10:42.808Z,99511.50
2022-09-09T01:13:16.479Z,99520.06
2022-09-09T01:15:45.574Z,99526.63
2022-09-09T01:18:15.437Z,99530.16
2022-09-09T01:21:07.416Z,99534.22
2022-09-09T01:23:39.478Z,99540.22
2022-09-09T01:26:23.625Z,99545.00
2022-09-09T01:28:55.953Z,99547.88
2022-09-09T01:31:29.013Z,99540.25
2022-09-09T01:33:56.742Z,99544.91
2022-09-09T01:36:38.550Z,99543.91
2022-09-09T01:39:06.483Z,99546.91
2022-09-09T01:41:34.021Z,99549.72
2022-09-09T01:44:02.735Z,99556.03
2022-09-09T01:46:30.720Z,99552.50
2022-09-09T01:49:00.485Z,99559.53
2022-09-09T01:51:28.177Z,99564.53
2022-09-09T01:53:56.524Z,99563.62
2022-09-09T01:56:41.940Z,99562.28
2022-09-09T01:59:19.633Z,99558.59
2022-09-09T02:02:16.887Z,99556.22
2022-09-09T02:04:48.974Z,99552.22
2022-09-09T02:07:37.748Z,99545.72
2022-09-09T02:10:15.898Z,99548.97
2022-09-09T02:12:47.436Z,99549.75
2022-09-09T02:15:54.187Z,99550.00
2022-09-09T02:18:29.210Z,99548.00
2022-09-09T02:20:58.720Z,99556.50
2022-09-09T02:23:26.614Z,99556.31
2022-09-09T02:25:56.678Z,99550.34
2022-09-09T02:28:26.452Z,99545.38
2022-09-09T02:30:56.146Z,99536.13
2022-09-09T02:33:26.452Z,99541.47
2022-09-09T02:35:54.233Z,99533.91
2022-09-09T02:38:23.187Z,99540.22
2022-09-09T02:40:52.865Z,99532.91
2022-09-09T02:43:20.621Z,99540.28
2022-09-09T02:46:17.804Z,99530.03
2022-09-09T02:49:01.010Z,99532.81
2022-09-09T02:51:44.403Z,99546.56
2022-09-09T02:54:19.903Z,99545.44
2022-09-09T02:56:52.241Z,99550.94
2022-09-09T02:59:20.271Z,99542.44
2022-09-09T03:01:48.045Z,99548.81
2022-09-09T03:04:15.680Z,99552.37
2022-09-09T03:06:43.066Z,99557.09
2022-09-09T03:09:11.897Z,99560.56
2022-09-09T03:11:39.589Z,99556.28
2022-09-09T03:14:07.481Z,99556.91
2022-09-09T03:16:36.105Z,99563.78
2022-09-09T03:19:04.039Z,99556.88
2022-09-09T03:21:31.822Z,99565.03
2022-09-09T03:24:00.353Z,99570.84
2022-09-09T03:26:28.265Z,99557.31
2022-09-09T03:28:56.293Z,99558.84
2022-09-09T03:31:24.154Z,99558.66
2022-09-09T03:33:51.933Z,99556.72
2022-09-09T03:36:19.661Z,99553.56
2022-09-09T03:38:47.248Z,99559.47
2022-09-09T03:41:14.708Z,99552.13
2022-09-09T03:43:42.864Z,99562.00
2022-09-09T03:46:10.541Z,99555.12
2022-09-09T03:48:39.318Z,99565.63
2022-09-09T03:51:06.723Z,99572.94
2022-09-09T03:53:35.306Z,99573.50
2022-09-09T03:56:03.230Z,99574.47
2022-09-09T03:58:30.748Z,99573.78
2022-09-09T04:01:00.389Z,99577.03
2022-09-09T04:03:28.800Z,99583.25
2022-09-09T04:05:57.732Z,99577.97
2022-09-09T04:08:28.750Z,99584.78
2022-09-09T04:10:58.927Z,99580.25
2022-09-09T04:13:27.495Z,99570.62
2022-09-09T04:15:57.698Z,99586.72
2022-09-09T04:18:26.948Z,99579.56
2022-09-09T04:20:56.011Z,99579.75
2022-09-09T04:23:25.163Z,99577.03
2022-09-09T04:25:54.119Z,99574.06
2022-09-09T04:28:24.077Z,99573.72
2022-09-09T04:30:52.700Z,99577.28
2022-09-09T04:33:20.539Z,99577.41
2022-09-09T04:35:50.708Z,99578.69
2022-09-09T04:38:19.117Z,99573.59
2022-09-09T04:40:50.807Z,99567.41
2022-09-09T04:43:19.855Z,99561.59
2022-09-09T04:45:54.741Z,99562.09
2022-09-09T04:48:22.581Z,99563.62
2022-09-09T04:51:01.019Z,99559.28
2022-09-09T04:53:28.744Z,99563.31
2022-09-09T04:56:05.591Z,99558.75
2022-09-09T04:58:33.637Z,99561.28
2022-09-09T05:01:08.707Z,99572.50
2022-09-09T05:03:36.917Z,99575.94
2022-09-09T05:06:10.894Z,99580.72
2022-09-09T05:08:39.506Z,99581.13
2022-09-09T05:11:25.170Z,99579.16
2022-09-09T05:13:53.522Z,99583.97
2022-09-09T05:16:22.281Z,99582.31
2022-09-09T05:18:52.904Z,99582.44
2022-09-09T05:21:22.748Z,99586.09
2022-09-09T05:23:51.385Z,99585.75
2022-09-09T05:26:21.359Z,99582.03
2022-09-09T05:28:49.607Z,99576.72
2022-09-09T05:31:18.329Z,99590.75
2022-09-09T05:33:47.044Z,99602.00
2022-09-09T05:36:20.678Z,99603.84
2022-09-09T05:38:48.769Z,99604.84
2022-09-09T05:41:18.193Z,99596.87
2022-09-09T05:43:48.055Z,99598.63
2022-09-09T05:46:28.947Z,99598.75
2022-09-09T05:48:56.396Z,99601.97
2022-09-09T05:51:29.091Z,99609.12
2022-09-09T05:53:59.420Z,99597.84
2022-09-09T05:56:29.990Z,99600.66
2022-09-09T05:58:57.901Z,99599.19
2022-09-09T06:01:27.887Z,99599.84
2022-09-09T06:03:55.619Z,99596.44
2022-09-09T06:06:26.891Z,99596.37
2022-09-09T06:08:58.302Z,99599.38
2022-09-09T06:11:28.060Z,99593.56
2022-09-09T06:13:55.691Z,99596.19
2022-09-09T06:16:24.998Z,99597.81
2022-09-09T06:18:54.032Z,99601.53
2022-09-09T06:21:26.972Z,99600.75
2022-09-09T06:23:58.952Z,99599.41
2022-09-09T06:26:31.539Z,99606.03
2022-09-09T06:29:00.209Z,99607.28
2022-09-09T06:31:31.497Z,99603.19
2022-09-09T06:34:00.276Z,99613.94
2022-09-09T06:36:30.113Z,99605.03
2022-09-09T06:38:57.846Z,99609.22
2022-09-09T06:41:29.960Z,99598.97
2022-09-09T06:43:57.900Z,99599.81
2022-09-09T06:46:31.321Z,99606.00
2022-09-09T06:49:00.780Z,99613.84
2022-09-09T06:51:30.151Z,99611.22
2022-09-09T06:53:59.701Z,99617.09
2022-09-09T06:56:29.122Z,99618.63
2022-09-09T06:58:59.425Z,99618.31
2022-09-09T07:01:32.864Z,99621.75
2022-09-09T07:04:01.464Z,99624.62
2022-09-09T07:06:33.674Z,99627.13
2022-09-09T07:09:07.016Z,99628.00
2022-09-09T07:11:38.983Z,99629.97
2022-09-09T07:14:06.698Z,99623.44
2022-09-09T07:16:40.269Z,99628.16
2022-09-09T07:19:07.615Z,99623.88
2022-09-09T07:21:35.499Z,99623.53
2022-09-09T07:24:03.340Z,99631.00
2022-09-09T07:26:31.901Z,99630.78
2022-09-09T07:29:00.361Z,99623.91
2022-09-09T07:31:33.341Z,99634.72
2022-09-09T07:34:02.000Z,99632.88
2022-09-09T07:36:33.393Z,99633.88
2022-09-09T07:39:07.195Z,99639.69
2022-09-09T07:41:42.443Z,99636.25
2022-09-09T07:44:30.546Z,99646.25
2022-09-09T07:46:59.003Z,99635.53
2022-09-09T07:49:32.157Z,99637.78
2022-09-09T07:52:00.355Z,99643.47
2022-09-09T07:54:28.781Z,99637.25
2022-09-09T07:56:56.312Z,99639.53
2022-09-09T07:59:25.068Z,99638.91
2022-09-09T08:01:56.730Z,99642.91
2022-09-09T08:04:26.175Z,99638.81
2022-09-09T08:06:56.626Z,99637.56
2022-09-09T08:09:27.932Z,99642.25
2022-09-09T08:11:57.437Z,99633.09
2022-09-09T08:14:25.751Z,99636.13
2022-09-09T08:16:55.268Z,99635.09
2022-09-09T08:19:23.665Z,99630.03
2022-09-09T08:21:51.329Z,99632.09
2022-09-09T08:24:20.565Z,99631.31
2022-09-09T08:26:50.226Z,99633.63
2022-09-09T08:29:19.123Z,99638.16
2022-09-09T08:31:53.789Z,99634.94
2022-09-09T08:34:22.445Z,99635.94
2022-09-09T08:36:51.086Z,99637.16
2022-09-09T08:39:21.562Z,99634.13
2022-09-09T08:42:30.599Z,99630.69
2022-09-09T08:45:13.140Z,99636.47
2022-09-09T08:47:53.607Z,99644.84
2022-09-09T08:50:36.695Z,99644.00
2022-09-09T08:53:17.446Z,99647.78
2022-09-09T08:55:56.421Z,99636.44
2022-09-09T08:58:33.381Z,99641.28
2022-09-09T09:01:10.624Z,99641.25
2022-09-09T09:04:00.317Z,99643.28
2022-09-09T09:06:31.309Z,99644.06
2022-09-09T09:09:03.520Z,99641.38
2022-09-09T09:11:49.463Z,99634.56
2022-09-09T09:14:24.467Z,99633.06
2022-09-09T09:16:57.132Z,99627.97
2022-09-09T09:19:27.202Z,99633.00
2022-09-09T09:22:11.684Z,99625.56
2022-09-09T09:24:53.970Z,99620.03
2022-09-09T09:27:36.043Z,99617.56
2022-09-09T09:30:29.585Z,99617.47
2022-09-09T09:33:04.290Z,99617.56
2022-09-09T09:35:33.541Z,99616.75
2022-09-09T09:40:58.904Z,99601.62
2022-09-09T09:43:29.531Z,99618.16
2022-09-09T09:46:16.790Z,99616.22
2022-09-09T09:48:46.625Z,99617.94
2022-09-09T09:51:17.072Z,99618.22
2022-09-09T09:53:44.850Z,99616.62
2022-09-09T09:56:15.994Z,99620.69
2022-09-09T09:58:47.186Z,99629.69
2022-09-09T10:01:30.777Z,99622.09
2022-09-09T10:04:00.920Z,99613.88
2022-09-09T10:06:36.264Z,99622.44
2022-09-09T10:09:25.366Z,99614.44
2022-09-09T10:12:21.116Z,99614.69
2022-09-09T10:14:48.733Z,99617.63
2022-09-09T10:17:32.864Z,99610.34
2022-09-09T10:20:45.673Z,99611.19
2022-09-09T10:23:38.138Z,99611.06
2022-09-09T10:26:22.786Z,99605.59
2022-09-09T10:28:56.515Z,99607.59
2022-09-09T10:31:32.287Z,99618.81
2022-09-09T10:34:18.186Z,99611.22
2022-09-09T10:36:50.138Z,99613.25
2022-09-09T10:39:40.643Z,99598.59
2022-09-09T10:42:13.702Z,99604.06
2022-09-09T10:45:06.472Z,99598.91
2022-09-09T10:47:58.517Z,99609.88
2022-09-09T10:51:00.712Z,99604.50
2022-09-09T10:53:39.727Z,99606.81
2022-09-09T10:56:16.124Z,99590.47
2022-09-09T10:58:53.891Z,99594.47
2022-09-09T11:01:51.286Z,99596.28
2022-09-09T11:04:36.310Z,99600.53
2022-09-09T11:07:11.608Z,99590.41
2022-09-09T11:09:49.303Z,99587.25
2022-09-09T11:12:21.219Z,99594.50
2022-09-09T11:14:55.671Z,99585.34
2022-09-09T11:17:24.085Z,99581.13
2022-09-09T11:19:51.914Z,99574.63
2022-09-09T11:22:30.541Z,99583.69
2022-09-09T11:25:21.356Z,99593.84
2022-09-09T11:27:57.576Z,99592.94
2022-09-09T11:30:57.511Z,99593.81
2022-09-09T11:34:09.428Z,99591.88
2022-09-09T11:36:55.331Z,99596.28
2022-09-09T11:39:31.736Z,99603.91
2022-09-09T11:42:14.373Z,99591.34
2022-09-09T11:44:42.470Z,99588.66
2022-09-09T11:47:30.171Z,99579.41
2022-09-09T11:50:15.774Z,99590.19
2022-09-09T11:52:49.356Z,99585.56
2022-09-09T11:55:35.729Z,99591.38
2022-09-09T11:58:03.982Z,99582.44
2022-09-09T12:00:38.428Z,99584.16
2022-09-09T12:03:06.834Z,99582.47
2022-09-09T12:05:52.438Z,99578.62
2022-09-09T12:08:27.886Z,99587.28
2022-09-09T12:10:57.170Z,99595.22
2022-09-09T12:13:26.466Z,99601.59
2022-09-09T12:15:55.679Z,99598.59
2022-09-09T12:18:35.086Z,99601.84
2022-09-09T12:21:13.150Z,99589.37
2022-09-09T12:23:53.061Z,99596.06
2022-09-09T12:26:35.300Z,99580.31
2022-09-09T12:29:05.565Z,99569.41
2022-09-09T12:31:36.031Z,99572.00
2022-09-09T12:34:20.587Z,99567.97
2022-09-09T12:36:54.770Z,99561.81
2022-09-09T12:39:54.663Z,99552.34
2022-09-09T12:42:23.207Z,99553.59
2022-09-09T12:45:04.935Z,99552.25
2022-09-09T12:47:38.924Z,99555.59
2022-09-09T12:50:11.834Z,99548.12
2022-09-09T12:52:40.053Z,99544.63
2022-09-09T12:55:09.734Z,99555.06
2022-09-09T12:57:39.257Z,99545.47
2022-09-09T13:00:18.789Z,99535.66
2022-09-09T13:02:49.974Z,99524.09
2022-09-09T13:05:26.068Z,99521.28
2022-09-09T13:08:03.352Z,99513.00
2022-09-09T13:10:43.127Z,99502.56
2022-09-09T13:13:19.163Z,99503.31
2022-09-09T13:15:55.234Z,99508.03
2022-09-09T13:18:28.585Z,99502.28
2022-09-09T13:20:58.887Z,99504.81
2022-09-09T13:23:36.138Z,99503.00
2022-09-09T13:26:07.101Z,99513.25
2022-09-09T13:28:36.072Z,99515.38
2022-09-09T13:31:07.929Z,99512.97
2022-09-09T13:33:39.259Z,99499.97
2022-09-09T13:36:11.756Z,99497.59
2022-09-09T13:39:00.665Z,99494.59
2022-09-09T13:41:34.975Z,99495.63
2022-09-09T13:44:03.886Z,99488.63
2022-09-09T13:46:41.121Z,99487.75
2022-09-09T13:49:11.176Z,99489.19
2022-09-09T13:51:39.731Z,99480.50
2022-09-09T13:54:10.636Z,99477.59
2022-09-09T13:56:39.716Z,99478.53
2022-09-09T13:59:11.122Z,99471.56
2022-09-09T14:01:38.808Z,99468.69
2022-09-09T14:04:07.562Z,99457.22
2022-09-09T14:06:38.210Z,99462.34
2022-09-09T14:09:12.251Z,99458.22
2022-09-09T14:11:39.594Z,99455.66
2022-09-09T14:14:07.207Z,99454.44
2022-09-09T14:16:34.610Z,99445.31
2022-09-09T14:19:02.189Z,99442.53
2022-09-09T14:21:29.776Z,99449.78
2022-09-09T14:23:58.994Z,99457.12
2022-09-09T14:26:27.230Z,99460.87
2022-09-09T14:28:55.977Z,99452.19
2022-09-09T14:31:24.576Z,99445.50
2022-09-09T14:33:52.242Z,99448.19
2022-09-09T14:36:19.916Z,99442.16
2022-09-09T14:38:47.591Z,99442.50
2022-09-09T14:41:20.732Z,99436.53
2022-09-09T14:43:48.346Z,99436.47
2022-09-09T14:46:17.321Z,99442.28
2022-09-09T14:48:46.170Z,99439.28
2022-09-09T14:51:17.346Z,99447.97
2022-09-09T14:53:45.339Z,99437.19
2022-09-09T14:56:17.837Z,99442.94
2022-09-09T14:58:45.829Z,99445.84
2022-09-09T15:01:15.444Z,99439.31
2022-09-09T15:03:44.474Z,99431.72
2022-09-09T15:06:13.542Z,99441.25
2022-09-09T15:08:43.183Z,99439.94
2022-09-09T15:11:11.524Z,99445.06
2022-09-09T15:13:40.940Z,99439.50
2022-09-09T15:16:10.311Z,99436.09
2022-09-09T15:18:37.621Z,99436.94
2022-09-09T15:21:05.930Z,99440.47
2022-09-09T15:23:34.155Z,99443.19
2022-09-09T15:26:01.457Z,99441.53
2022-09-09T15:28:29.332Z,99443.66
2022-09-09T15:30:57.824Z,99445.03
2022-09-09T15:33:25.222Z,99439.75
2022-09-09T15:35:53.075Z,99437.72
2022-09-09T15:38:20.567Z,99439.94
2022-09-09T15:40:55.402Z,99436.75
2022-09-09T15:43:23.204Z,99447.75
2022-09-09T15:45:57.871Z,99449.22
2022-09-09T15:48:35.648Z,99443.81
2022-09-09T15:51:10.923Z,99435.59
2022-09-09T15:53:46.959Z,99436.97
2022-09-09T15:56:14.503Z,99436.19
2022-09-09T15:58:43.228Z,99428.56
2022-09-09T16:01:12.398Z,99424.97
2022-09-09T16:03:45.616Z,99434.47
2022-09-09T16:06:14.614Z,99443.38
2022-09-09T16:08:44.569Z,99449.81
2022-09-09T16:11:18.416Z,99452.59
2022-09-09T16:13:50.924Z,99465.88
2022-09-09T16:16:22.985Z,99462.41
2022-09-09T16:18:53.656Z,99457.78
2022-09-09T16:21:36.122Z,99456.25
2022-09-09T16:24:04.939Z,99463.53
2022-09-09T16:26:34.076Z,99457.66
2022-09-09T16:29:02.339Z,99455.38
2022-09-09T16:31:31.033Z,99458.50
2022-09-09T16:33:58.989Z,99450.81
2022-09-09T16:36:35.041Z,99452.84
2022-09-09T16:39:06.355Z,99454.47
2022-09-09T16:41:34.192Z,99453.25
2022-09-09T16:44:04.465Z,99450.53
2022-09-09T16:46:34.987Z,99448.94
2022-09-09T16:49:04.199Z,99454.84
2022-09-09T16:51:33.967Z,99459.16
2022-09-09T16:54:02.914Z,99470.59
2022-09-09T16:56:34.081Z,99469.78
2022-09-09T16:59:03.459Z,99468.69
2022-09-09T17:01:33.862Z,99466.34
2022-09-09T17:04:03.428Z,99464.03
2022-09-09T17:06:31.801Z,99464.75
2022-09-09T17:09:02.290Z,99467.72
2022-09-09T17:11:30.815Z,99464.59
2022-09-09T17:13:59.218Z,99463.47
2022-09-09T17:16:29.869Z,99461.34
2022-09-09T17:18:59.531Z,99471.31
2022-09-09T17:21:28.422Z,99472.53
2022-09-09T17:23:56.952Z,99466.03
2022-09-09T17:26:27.834Z,99465.94
2022-09-09T17:28:59.439Z,99456.84
2022-09-09T17:31:28.542Z,99458.81
2022-09-09T17:33:56.309Z,99458.91
2022-09-09T17:36:26.276Z,99461.44
2022-09-09T17:38:54.285Z,99462.03
2022-09-09T17:41:26.865Z,99470.22
2022-09-09T17:43:55.520Z,99477.50
2022-09-09T17:46:25.940Z,99474.72
2022-09-09T17:48:57.533Z,99465.72
2022-09-09T17:51:28.770Z,99473.72
2022-09-09T17:53:59.860Z,99470.34
2022-09-09T17:56:31.492Z,99471.38
2022-09-09T17:59:00.286Z,99461.28
2022-09-09T18:01:31.214Z,99455.06
2022-09-09T18:04:04.225Z,99457.88
2022-09-09T18:06:37.072Z,99464.69
2022-09-09T18:09:08.240Z,99480.16
2022-09-09T18:11:39.842Z,99492.03
2022-09-09T18:14:07.454Z,99488.88
2022-09-09T18:16:36.509Z,99485.56
2022-09-09T18:19:05.738Z,99488.13
2022-09-09T18:21:34.285Z,99477.16
2022-09-09T18:24:03.877Z,99482.94
2022-09-09T18:26:33.711Z,99482.87
2022-09-09T18:29:04.826Z,99484.66
2022-09-09T18:31:33.153Z,99486.72
2022-09-09T18:34:03.762Z,99490.09
2022-09-09T18:36:34.845Z,99496.00
2022-09-09T18:39:04.322Z,99488.81
2022-09-09T18:41:37.536Z,99485.59
2022-09-09T18:44:16.474Z,99490.72
2022-09-09T18:46:45.184Z,99486.84
2022-09-09T18:49:13.763Z,99491.22
2022-09-09T18:51:43.345Z,99494.69
2022-09-09T18:54:16.715Z,99497.13
2022-09-09T18:56:44.961Z,99490.66
2022-09-09T18:59:14.940Z,99486.25
2022-09-09T19:01:42.733Z,99495.12
2022-09-09T19:04:10.695Z,99491.84
2022-09-09T19:06:41.434Z,99486.00
2022-09-09T19:09:17.184Z,99479.22
2022-09-09T19:11:45.745Z,99481.53
2022-09-09T19:14:15.391Z,99476.34
2022-09-09T19:16:44.685Z,99484.25
2022-09-09T19:19:21.279Z,99483.34
2022-09-09T19:21:49.127Z,99474.81
2022-09-09T19:24:22.302Z,99478.41
2022-09-09T19:26:52.305Z,99484.91
2022-09-09T19:29:22.440Z,99477.19
2022-09-09T19:32:29.328Z,99476.03
2022-09-09T19:34:38.753Z,99473.06
2022-09-09T19:37:06.114Z,99476.88
2022-09-09T19:39:34.715Z,99482.13
2022-09-09T19:42:02.475Z,99474.19
2022-09-09T19:44:29.970Z,99489.09
2022-09-09T19:46:59.607Z,99480.25
2022-09-09T19:49:27.221Z,99480.06
2022-09-09T19:51:55.881Z,99474.81
2022-09-09T19:54:23.370Z,99480.44
2022-09-09T19:56:50.975Z,99480.72
2022-09-09T19:59:18.305Z,99481.53
2022-09-09T20:01:45.881Z,99479.75
2022-09-09T20:04:14.752Z,99488.03
2022-09-09T20:06:46.322Z,99489.72
2022-09-09T20:09:21.230Z,99492.81
2022-09-09T20:11:49.684Z,99497.22
2022-09-09T20:16:49.610Z,99505.81
2022-09-09T20:19:17.277Z,99513.87
2022-09-09T20:21:49.635Z,99511.00
2022-09-09T20:24:19.450Z,99513.22
2022-09-09T20:26:48.389Z,99509.19
2022-09-09T20:29:18.102Z,99504.87
2022-09-09T20:31:45.954Z,99504.56
2022-09-09T20:34:15.354Z,99509.88
2022-09-09T20:36:43.325Z,99503.63
2022-09-09T20:39:14.896Z,99508.13
2022-09-09T20:41:44.423Z,99506.59
2022-09-09T20:44:17.299Z,99502.22
2022-09-09T20:46:49.281Z,99498.72
2022-09-09T20:49:18.755Z,99493.22
2022-09-09T20:51:47.885Z,99479.16
2022-09-09T20:54:18.106Z,99479.31
2022-09-09T20:56:46.396Z,99486.25
2022-09-09T20:59:34.913Z,99473.53
2022-09-09T21:02:03.486Z,99475.41
2022-09-09T21:04:31.333Z,99474.41
2022-09-09T21:06:58.631Z,99477.59
2022-09-09T21:09:26.212Z,99488.53
2022-09-09T21:11:53.826Z,99483.31
2022-09-09T21:14:21.700Z,99494.38
2022-09-09T21:16:49.289Z,99500.94
2022-09-09T21:19:16.618Z,99499.56
2022-09-09T21:21:45.387Z,99497.78
2022-09-09T21:24:12.952Z,99499.47
2022-09-09T21:26:40.244Z,99486.78
2022-09-09T21:29:07.919Z,99486.66
2022-09-09T21:31:35.520Z,99487.69
2022-09-09T21:34:03.409Z,99480.50
2022-09-09T21:36:30.709Z,99487.97
2022-09-09T21:38:59.303Z,99483.44
2022-09-09T21:41:27.169Z,99488.94
2022-09-09T21:43:54.869Z,99479.50
2022-09-09T21:46:23.672Z,99469.75
2022-09-09T21:48:51.195Z,99474.59
2022-09-09T21:51:18.957Z,99473.66
2022-09-09T21:53:46.556Z,99476.94
2022-09-09T21:56:18.427Z,99475.47
2022-09-09T21:58:46.819Z,99480.31
2022-09-09T22:01:17.023Z,99476.63
2022-09-09T22:03:45.213Z,99482.59
2022-09-09T22:06:14.914Z,99484.53
2022-09-09T22:08:42.802Z,99490.81
2022-09-09T22:11:20.595Z,99487.47
2022-09-09T22:13:48.920Z,99489.59
2022-09-09T22:16:19.069Z,99482.13
2022-09-09T22:18:56.843Z,99478.34
2022-09-09T22:21:26.290Z,99482.94
2022-09-09T22:23:55.367Z,99474.50
2022-09-09T22:26:23.952Z,99466.87
2022-09-09T22:28:53.799Z,99469.06
2022-09-09T22:31:22.774Z,99464.53
2022-09-09T22:33:51.896Z,99473.03
2022-09-09T22:36:20.380Z,99469.94
2022-09-09T22:38:48.992Z,99486.34
2022-09-09T22:41:17.136Z,99484.88
2022-09-09T22:43:45.515Z,99465.72
2022-09-09T22:46:13.597Z,99471.28
2022-09-09T22:48:40.970Z,99469.16
2022-09-09T22:51:13.490Z,99467.03
2022-09-09T22:53:41.961Z,99468.81
2022-09-09T22:56:17.255Z,99470.00
2022-09-09T22:58:46.095Z,99466.31
2022-09-09T23:01:16.305Z,99455.94
2022-09-09T23:03:46.159Z,99469.50
2022-09-09T23:06:20.114Z,99458.91
2022-09-09T23:08:52.358Z,99475.81
2022-09-09T23:11:20.548Z,99469.47
2022-09-09T23:13:50.293Z,99463.31
2022-09-09T23:16:20.273Z,99463.62
2022-09-09T23:18:48.571Z,99462.16
2022-09-09T23:21:16.050Z,99469.97
2022-09-09T23:23:43.591Z,99466.72
2022-09-09T23:26:14.066Z,99458.75
2022-09-09T23:28:42.516Z,99453.75
2022-09-09T23:31:13.072Z,99453.22
2022-09-09T23:33:41.846Z,99459.41
2022-09-09T23:36:13.392Z,99459.75
2022-09-09T23:38:41.530Z,99464.44
2022-09-09T23:41:11.305Z,99459.59
2022-09-09T23:43:43.587Z,99461.38
2022-09-09T23:46:13.956Z,99462.38
2022-09-09T23:48:41.796Z,99462.19
2022-09-09T23:51:17.652Z,99457.97
2022-09-09T23:53:51.031Z,99462.47
2022-09-09T23:56:22.448Z,99463.94
2022-09-09T23:58:50.613Z,99471.38
